sensor_id;sensor_type;location;lat;lon;timestamp;temperature;humidity
20827;DHT22;10574;52.508;13.236;2024-02-04T00:02:24;7.90;99.90
20827;DHT22;10574;52.508;13.236;2024-02-04T00:04:52;7.90;99.90
20827;DHT22;10574;52.508;13.236;2024-02-04T00:07:20;7.90;99.90
20827;DHT22;10574;52.508;13.236;2024-02-04T00:09:48;7.90;99.90
20827;DHT22;10574;52.508;13.236;2024-02-04T00:12:15;7.90;99.90
20827;DHT22;10574;52.508;13.236;2024-02-04T00:14:43;7.90;99.90
20827;DHT22;10574;52.508;13.236;2024-02-04T00:17:11;7.90;99.90
20827;DHT22;10574;52.508;13.236;2024-02-04T00:19:41;7.90;99.90
20827;DHT22;10574;52.508;13.236;2024-02-04T00:22:09;7.90;99.90
20827;DHT22;10574;52.508;13.236;2024-02-04T00:24:37;7.80;99.90
20827;DHT22;10574;52.508;13.236;2024-02-04T00:27:05;7.80;99.90
20827;DHT22;10574;52.508;13.236;2024-02-04T00:29:33;7.70;99.90
20827;DHT22;10574;52.508;13.236;2024-02-04T00:32:00;7.70;99.90
20827;DHT22;10574;52.508;13.236;2024-02-04T00:34:28;7.70;99.90
20827;DHT22;10574;52.508;13.236;2024-02-04T00:36:56;7.60;99.90
20827;DHT22;10574;52.508;13.236;2024-02-04T00:39:23;7.60;99.90
20827;DHT22;10574;52.508;13.236;2024-02-04T00:41:51;7.60;99.90
20827;DHT22;10574;52.508;13.236;2024-02-04T00:44:19;7.50;99.90
20827;DHT22;10574;52.508;13.236;2024-02-04T00:46:47;7.40;99.90
20827;DHT22;10574;52.508;13.236;2024-02-04T00:49:15;7.40;99.90
20827;DHT22;10574;52.508;13.236;2024-02-04T00:51:43;7.30;99.90
20827;DHT22;10574;52.508;13.236;2024-02-04T00:54:10;7.30;99.90
20827;DHT22;10574;52.508;13.236;2024-02-04T00:56:38;7.20;99.90
20827;DHT22;10574;52.508;13.236;2024-02-04T00:59:06;7.20;99.90
20827;DHT22;10574;52.508;13.236;2024-02-04T01:01:35;7.20;99.90
20827;DHT22;10574;52.508;13.236;2024-02-04T01:04:03;7.10;99.90
20827;DHT22;10574;52.508;13.236;2024-02-04T01:06:31;7.00;99.90
20827;DHT22;10574;52.508;13.236;2024-02-04T01:08:59;7.00;99.90
20827;DHT22;10574;52.508;13.236;2024-02-04T01:11:27;7.00;99.90
20827;DHT22;10574;52.508;13.236;2024-02-04T01:13:55;6.90;99.90
20827;DHT22;10574;52.508;13.236;2024-02-04T01:16:25;6.90;99.90
20827;DHT22;10574;52.508;13.236;2024-02-04T01:18:53;6.90;99.90
20827;DHT22;10574;52.508;13.236;2024-02-04T01:21:21;6.80;99.90
20827;DHT22;10574;52.508;13.236;2024-02-04T01:23:49;6.80;99.90
20827;DHT22;10574;52.508;13.236;2024-02-04T01:26:16;6.80;99.90
20827;DHT22;10574;52.508;13.236;2024-02-04T01:28:44;6.80;99.90
20827;DHT22;10574;52.508;13.236;2024-02-04T01:31:12;6.70;99.90
20827;DHT22;10574;52.508;13.236;2024-02-04T01:33:40;6.70;99.90
20827;DHT22;10574;52.508;13.236;2024-02-04T01:36:08;6.70;99.90
20827;DHT22;10574;52.508;13.236;2024-02-04T01:38:35;6.60;99.90
20827;DHT22;10574;52.508;13.236;2024-02-04T01:41:03;6.60;99.90
20827;DHT22;10574;52.508;13.236;2024-02-04T01:43:31;6.60;99.90
20827;DHT22;10574;52.508;13.236;2024-02-04T01:45:59;6.50;99.90
20827;DHT22;10574;52.508;13.236;2024-02-04T01:48:27;6.50;99.90
20827;DHT22;10574;52.508;13.236;2024-02-04T01:50:56;6.50;99.90
20827;DHT22;10574;52.508;13.236;2024-02-04T01:53:27;6.50;99.90
20827;DHT22;10574;52.508;13.236;2024-02-04T01:55:55;6.40;99.90
20827;DHT22;10574;52.508;13.236;2024-02-04T01:58:24;6.40;99.90
20827;DHT22;10574;52.508;13.236;2024-02-04T02:00:52;6.40;99.90
20827;DHT22;10574;52.508;13.236;2024-02-04T02:03:20;6.40;99.90
20827;DHT22;10574;52.508;13.236;2024-02-04T02:05:49;6.40;99.90
20827;DHT22;10574;52.508;13.236;2024-02-04T02:08:17;6.40;99.90
20827;DHT22;10574;52.508;13.236;2024-02-04T02:10:46;6.40;99.90
20827;DHT22;10574;52.508;13.236;2024-02-04T02:13:28;6.40;99.90
20827;DHT22;10574;52.508;13.236;2024-02-04T02:15:54;6.40;99.90
20827;DHT22;10574;52.508;13.236;2024-02-04T02:21:05;6.40;99.90
20827;DHT22;10574;52.508;13.236;2024-02-04T02:23:34;6.40;99.90
20827;DHT22;10574;52.508;13.236;2024-02-04T02:26:00;6.40;99.90
20827;DHT22;10574;52.508;13.236;2024-02-04T02:28:30;6.30;99.90
20827;DHT22;10574;52.508;13.236;2024-02-04T02:30:57;6.30;99.90
20827;DHT22;10574;52.508;13.236;2024-02-04T02:33:25;6.20;99.90
20827;DHT22;10574;52.508;13.236;2024-02-04T02:35:58;6.20;99.90
20827;DHT22;10574;52.508;13.236;2024-02-04T02:38:49;6.20;99.90
20827;DHT22;10574;52.508;13.236;2024-02-04T02:41:16;6.20;99.90
20827;DHT22;10574;52.508;13.236;2024-02-04T02:43:47;6.10;99.90
20827;DHT22;10574;52.508;13.236;2024-02-04T02:46:15;6.10;99.90
20827;DHT22;10574;52.508;13.236;2024-02-04T02:48:43;6.10;99.90
20827;DHT22;10574;52.508;13.236;2024-02-04T02:51:11;6.10;99.90
20827;DHT22;10574;52.508;13.236;2024-02-04T02:53:39;6.10;99.90
20827;DHT22;10574;52.508;13.236;2024-02-04T02:56:07;6.10;99.90
20827;DHT22;10574;52.508;13.236;2024-02-04T02:58:34;6.20;99.90
20827;DHT22;10574;52.508;13.236;2024-02-04T03:01:02;6.20;99.90
20827;DHT22;10574;52.508;13.236;2024-02-04T03:03:30;6.20;99.90
20827;DHT22;10574;52.508;13.236;2024-02-04T03:05:58;6.30;99.90
20827;DHT22;10574;52.508;13.236;2024-02-04T03:08:27;6.30;99.90
20827;DHT22;10574;52.508;13.236;2024-02-04T03:10:55;6.30;99.90
20827;DHT22;10574;52.508;13.236;2024-02-04T03:13:23;6.40;99.90
20827;DHT22;10574;52.508;13.236;2024-02-04T03:15:51;6.40;99.90
20827;DHT22;10574;52.508;13.236;2024-02-04T03:18:20;6.40;99.90
20827;DHT22;10574;52.508;13.236;2024-02-04T03:20:48;6.50;99.90
20827;DHT22;10574;52.508;13.236;2024-02-04T03:23:16;6.50;99.90
20827;DHT22;10574;52.508;13.236;2024-02-04T03:25:43;6.50;99.90
20827;DHT22;10574;52.508;13.236;2024-02-04T03:28:11;6.60;99.90
20827;DHT22;10574;52.508;13.236;2024-02-04T03:30:39;6.60;99.90
20827;DHT22;10574;52.508;13.236;2024-02-04T03:33:07;6.60;99.90
20827;DHT22;10574;52.508;13.236;2024-02-04T03:35:35;6.70;99.90
20827;DHT22;10574;52.508;13.236;2024-02-04T03:38:04;6.70;99.90
20827;DHT22;10574;52.508;13.236;2024-02-04T03:40:33;6.70;99.90
20827;DHT22;10574;52.508;13.236;2024-02-04T03:43:01;6.70;99.90
20827;DHT22;10574;52.508;13.236;2024-02-04T03:45:28;6.70;99.90
20827;DHT22;10574;52.508;13.236;2024-02-04T03:47:56;6.70;99.90
20827;DHT22;10574;52.508;13.236;2024-02-04T03:50:24;6.70;99.90
20827;DHT22;10574;52.508;13.236;2024-02-04T03:52:51;6.70;99.90
20827;DHT22;10574;52.508;13.236;2024-02-04T03:55:19;6.70;99.90
20827;DHT22;10574;52.508;13.236;2024-02-04T03:57:47;6.70;99.90
20827;DHT22;10574;52.508;13.236;2024-02-04T04:00:16;6.70;99.90
20827;DHT22;10574;52.508;13.236;2024-02-04T04:02:43;6.70;99.90
20827;DHT22;10574;52.508;13.236;2024-02-04T04:05:11;6.70;99.90
20827;DHT22;10574;52.508;13.236;2024-02-04T04:07:41;6.70;99.90
20827;DHT22;10574;52.508;13.236;2024-02-04T04:10:09;6.60;99.90
20827;DHT22;10574;52.508;13.236;2024-02-04T04:12:36;6.60;99.90
20827;DHT22;10574;52.508;13.236;2024-02-04T04:15:05;6.60;99.90
20827;DHT22;10574;52.508;13.236;2024-02-04T04:17:33;6.50;99.90
20827;DHT22;10574;52.508;13.236;2024-02-04T04:20:00;6.50;99.90
20827;DHT22;10574;52.508;13.236;2024-02-04T04:22:28;6.40;99.90
20827;DHT22;10574;52.508;13.236;2024-02-04T04:24:56;6.40;99.90
20827;DHT22;10574;52.508;13.236;2024-02-04T04:27:24;6.40;99.90
20827;DHT22;10574;52.508;13.236;2024-02-04T04:29:52;6.30;99.90
20827;DHT22;10574;52.508;13.236;2024-02-04T04:32:19;6.30;99.90
20827;DHT22;10574;52.508;13.236;2024-02-04T04:34:47;6.20;99.90
20827;DHT22;10574;52.508;13.236;2024-02-04T04:37:15;6.20;99.90
20827;DHT22;10574;52.508;13.236;2024-02-04T04:39:42;6.20;99.90
20827;DHT22;10574;52.508;13.236;2024-02-04T04:42:10;6.20;99.90
20827;DHT22;10574;52.508;13.236;2024-02-04T04:44:38;6.10;99.90
20827;DHT22;10574;52.508;13.236;2024-02-04T04:47:06;6.10;99.90
20827;DHT22;10574;52.508;13.236;2024-02-04T04:49:34;6.10;99.90
20827;DHT22;10574;52.508;13.236;2024-02-04T04:52:02;6.20;99.90
20827;DHT22;10574;52.508;13.236;2024-02-04T04:54:30;6.10;99.90
20827;DHT22;10574;52.508;13.236;2024-02-04T04:56:58;6.10;99.90
20827;DHT22;10574;52.508;13.236;2024-02-04T04:59:25;6.10;99.90
20827;DHT22;10574;52.508;13.236;2024-02-04T05:01:54;6.10;99.90
20827;DHT22;10574;52.508;13.236;2024-02-04T05:04:22;6.10;99.90
20827;DHT22;10574;52.508;13.236;2024-02-04T05:06:52;6.10;99.90
20827;DHT22;10574;52.508;13.236;2024-02-04T05:09:20;6.00;99.90
20827;DHT22;10574;52.508;13.236;2024-02-04T05:11:48;6.10;99.90
20827;DHT22;10574;52.508;13.236;2024-02-04T05:14:16;6.10;99.90
20827;DHT22;10574;52.508;13.236;2024-02-04T05:16:43;6.10;99.90
20827;DHT22;10574;52.508;13.236;2024-02-04T05:19:12;6.00;99.90
20827;DHT22;10574;52.508;13.236;2024-02-04T05:21:40;6.00;99.90
20827;DHT22;10574;52.508;13.236;2024-02-04T05:24:08;6.00;99.90
20827;DHT22;10574;52.508;13.236;2024-02-04T05:26:36;6.00;99.90
20827;DHT22;10574;52.508;13.236;2024-02-04T05:29:04;6.00;99.90
20827;DHT22;10574;52.508;13.236;2024-02-04T05:31:31;6.00;99.90
20827;DHT22;10574;52.508;13.236;2024-02-04T05:33:59;6.00;99.90
20827;DHT22;10574;52.508;13.236;2024-02-04T05:36:27;6.00;99.90
20827;DHT22;10574;52.508;13.236;2024-02-04T05:38:55;6.00;99.90
20827;DHT22;10574;52.508;13.236;2024-02-04T05:41:23;6.00;99.90
20827;DHT22;10574;52.508;13.236;2024-02-04T05:43:51;6.00;99.90
20827;DHT22;10574;52.508;13.236;2024-02-04T05:46:19;6.00;99.90
20827;DHT22;10574;52.508;13.236;2024-02-04T05:48:47;6.00;99.90
20827;DHT22;10574;52.508;13.236;2024-02-04T05:51:16;6.10;99.90
20827;DHT22;10574;52.508;13.236;2024-02-04T05:53:44;6.10;99.90
20827;DHT22;10574;52.508;13.236;2024-02-04T05:56:12;6.10;99.90
20827;DHT22;10574;52.508;13.236;2024-02-04T05:58:40;6.10;99.90
20827;DHT22;10574;52.508;13.236;2024-02-04T06:01:07;6.20;99.90
20827;DHT22;10574;52.508;13.236;2024-02-04T06:03:35;6.20;99.90
20827;DHT22;10574;52.508;13.236;2024-02-04T06:06:03;6.20;99.90
20827;DHT22;10574;52.508;13.236;2024-02-04T06:08:34;6.20;99.90
20827;DHT22;10574;52.508;13.236;2024-02-04T06:11:03;6.20;99.90
20827;DHT22;10574;52.508;13.236;2024-02-04T06:13:31;6.20;99.90
20827;DHT22;10574;52.508;13.236;2024-02-04T06:15:59;6.20;99.90
20827;DHT22;10574;52.508;13.236;2024-02-04T06:18:26;6.30;99.90
20827;DHT22;10574;52.508;13.236;2024-02-04T06:20:54;6.30;99.90
20827;DHT22;10574;52.508;13.236;2024-02-04T06:23:22;6.30;99.90
20827;DHT22;10574;52.508;13.236;2024-02-04T06:25:50;6.30;99.90
20827;DHT22;10574;52.508;13.236;2024-02-04T06:28:17;6.20;99.90
20827;DHT22;10574;52.508;13.236;2024-02-04T06:30:45;6.20;99.90
20827;DHT22;10574;52.508;13.236;2024-02-04T06:33:13;6.20;99.90
20827;DHT22;10574;52.508;13.236;2024-02-04T06:35:40;6.20;99.90
20827;DHT22;10574;52.508;13.236;2024-02-04T06:38:08;6.20;99.90
20827;DHT22;10574;52.508;13.236;2024-02-04T06:40:36;6.20;99.90
20827;DHT22;10574;52.508;13.236;2024-02-04T06:43:04;6.20;99.90
20827;DHT22;10574;52.508;13.236;2024-02-04T06:45:31;6.10;99.90
20827;DHT22;10574;52.508;13.236;2024-02-04T06:47:59;6.10;99.90
20827;DHT22;10574;52.508;13.236;2024-02-04T06:50:27;6.20;99.90
20827;DHT22;10574;52.508;13.236;2024-02-04T06:52:55;6.10;99.90
20827;DHT22;10574;52.508;13.236;2024-02-04T06:55:23;6.10;99.90
20827;DHT22;10574;52.508;13.236;2024-02-04T06:57:50;6.10;99.90
20827;DHT22;10574;52.508;13.236;2024-02-04T07:00:18;6.20;99.90
20827;DHT22;10574;52.508;13.236;2024-02-04T07:02:48;6.10;99.90
20827;DHT22;10574;52.508;13.236;2024-02-04T07:05:15;6.20;99.90
20827;DHT22;10574;52.508;13.236;2024-02-04T07:07:43;6.20;99.90
20827;DHT22;10574;52.508;13.236;2024-02-04T07:10:11;6.20;99.90
20827;DHT22;10574;52.508;13.236;2024-02-04T07:12:38;6.30;99.90
20827;DHT22;10574;52.508;13.236;2024-02-04T07:15:06;6.30;99.90
20827;DHT22;10574;52.508;13.236;2024-02-04T07:17:35;6.20;99.90
20827;DHT22;10574;52.508;13.236;2024-02-04T07:20:03;6.30;99.90
20827;DHT22;10574;52.508;13.236;2024-02-04T07:22:32;6.30;99.90
20827;DHT22;10574;52.508;13.236;2024-02-04T07:25:02;6.30;99.90
20827;DHT22;10574;52.508;13.236;2024-02-04T07:27:30;6.30;99.90
20827;DHT22;10574;52.508;13.236;2024-02-04T07:29:58;6.40;99.90
20827;DHT22;10574;52.508;13.236;2024-02-04T07:32:25;6.40;99.90
20827;DHT22;10574;52.508;13.236;2024-02-04T07:34:53;6.40;99.90
20827;DHT22;10574;52.508;13.236;2024-02-04T07:37:21;6.40;99.90
20827;DHT22;10574;52.508;13.236;2024-02-04T07:39:48;6.50;99.90
20827;DHT22;10574;52.508;13.236;2024-02-04T07:42:16;6.50;99.90
20827;DHT22;10574;52.508;13.236;2024-02-04T07:44:44;6.50;99.90
20827;DHT22;10574;52.508;13.236;2024-02-04T07:47:12;6.60;99.90
20827;DHT22;10574;52.508;13.236;2024-02-04T07:49:40;6.60;99.90
20827;DHT22;10574;52.508;13.236;2024-02-04T07:52:07;6.60;99.90
20827;DHT22;10574;52.508;13.236;2024-02-04T07:54:35;6.70;99.90
20827;DHT22;10574;52.508;13.236;2024-02-04T07:57:03;6.70;99.90
20827;DHT22;10574;52.508;13.236;2024-02-04T07:59:32;6.70;99.90
20827;DHT22;10574;52.508;13.236;2024-02-04T08:01:59;6.70;99.90
20827;DHT22;10574;52.508;13.236;2024-02-04T08:04:27;6.70;99.90
20827;DHT22;10574;52.508;13.236;2024-02-04T08:06:55;6.80;99.90
20827;DHT22;10574;52.508;13.236;2024-02-04T08:09:23;6.90;99.90
20827;DHT22;10574;52.508;13.236;2024-02-04T08:11:50;6.90;99.90
20827;DHT22;10574;52.508;13.236;2024-02-04T08:14:18;6.90;99.90
20827;DHT22;10574;52.508;13.236;2024-02-04T08:16:46;7.00;99.90
20827;DHT22;10574;52.508;13.236;2024-02-04T08:19:15;7.00;99.90
20827;DHT22;10574;52.508;13.236;2024-02-04T08:21:42;7.00;99.90
20827;DHT22;10574;52.508;13.236;2024-02-04T08:24:10;7.10;99.90
20827;DHT22;10574;52.508;13.236;2024-02-04T08:26:38;7.10;99.90
20827;DHT22;10574;52.508;13.236;2024-02-04T08:29:05;7.10;99.90
20827;DHT22;10574;52.508;13.236;2024-02-04T08:31:33;7.10;99.90
20827;DHT22;10574;52.508;13.236;2024-02-04T08:34:01;7.20;99.90
20827;DHT22;10574;52.508;13.236;2024-02-04T08:36:29;7.20;99.90
20827;DHT22;10574;52.508;13.236;2024-02-04T08:38:57;7.20;99.90
20827;DHT22;10574;52.508;13.236;2024-02-04T08:41:25;7.30;99.90
20827;DHT22;10574;52.508;13.236;2024-02-04T08:43:53;7.30;99.90
20827;DHT22;10574;52.508;13.236;2024-02-04T08:46:21;7.30;99.90
20827;DHT22;10574;52.508;13.236;2024-02-04T08:48:49;7.30;99.90
20827;DHT22;10574;52.508;13.236;2024-02-04T08:51:17;7.30;99.90
20827;DHT22;10574;52.508;13.236;2024-02-04T08:53:46;7.40;99.90
20827;DHT22;10574;52.508;13.236;2024-02-04T08:56:13;7.40;99.90
20827;DHT22;10574;52.508;13.236;2024-02-04T08:58:41;7.40;99.90
20827;DHT22;10574;52.508;13.236;2024-02-04T09:01:09;7.40;99.90
20827;DHT22;10574;52.508;13.236;2024-02-04T09:03:37;7.40;99.90
20827;DHT22;10574;52.508;13.236;2024-02-04T09:06:05;7.40;99.90
20827;DHT22;10574;52.508;13.236;2024-02-04T09:08:33;7.40;99.90
20827;DHT22;10574;52.508;13.236;2024-02-04T09:11:01;7.40;99.90
20827;DHT22;10574;52.508;13.236;2024-02-04T09:13:29;7.50;99.90
20827;DHT22;10574;52.508;13.236;2024-02-04T09:15:56;7.50;99.90
20827;DHT22;10574;52.508;13.236;2024-02-04T09:18:24;7.50;99.90
20827;DHT22;10574;52.508;13.236;2024-02-04T09:20:52;7.50;99.90
20827;DHT22;10574;52.508;13.236;2024-02-04T09:23:20;7.50;99.90
20827;DHT22;10574;52.508;13.236;2024-02-04T09:25:47;7.50;99.90
20827;DHT22;10574;52.508;13.236;2024-02-04T09:28:15;7.60;99.90
20827;DHT22;10574;52.508;13.236;2024-02-04T09:30:43;7.60;99.90
20827;DHT22;10574;52.508;13.236;2024-02-04T09:33:10;7.70;99.90
20827;DHT22;10574;52.508;13.236;2024-02-04T09:35:38;7.70;99.90
20827;DHT22;10574;52.508;13.236;2024-02-04T09:38:06;7.80;99.90
20827;DHT22;10574;52.508;13.236;2024-02-04T09:40:34;7.90;99.90
20827;DHT22;10574;52.508;13.236;2024-02-04T09:43:02;7.90;99.90
20827;DHT22;10574;52.508;13.236;2024-02-04T09:45:31;8.00;99.90
20827;DHT22;10574;52.508;13.236;2024-02-04T09:47:59;8.10;99.90
20827;DHT22;10574;52.508;13.236;2024-02-04T09:50:29;8.10;99.90
20827;DHT22;10574;52.508;13.236;2024-02-04T09:52:58;8.20;99.90
20827;DHT22;10574;52.508;13.236;2024-02-04T09:55:27;8.20;99.90
20827;DHT22;10574;52.508;13.236;2024-02-04T09:57:56;8.30;99.90
20827;DHT22;10574;52.508;13.236;2024-02-04T10:00:25;8.30;99.90
20827;DHT22;10574;52.508;13.236;2024-02-04T10:02:56;8.30;99.90
20827;DHT22;10574;52.508;13.236;2024-02-04T10:05:24;8.40;99.90
20827;DHT22;10574;52.508;13.236;2024-02-04T10:07:51;8.30;99.90
20827;DHT22;10574;52.508;13.236;2024-02-04T10:10:19;8.30;99.90
20827;DHT22;10574;52.508;13.236;2024-02-04T10:12:48;8.40;99.90
20827;DHT22;10574;52.508;13.236;2024-02-04T10:15:17;8.40;99.90
20827;DHT22;10574;52.508;13.236;2024-02-04T10:17:48;8.50;99.90
20827;DHT22;10574;52.508;13.236;2024-02-04T10:20:16;8.50;99.90
20827;DHT22;10574;52.508;13.236;2024-02-04T10:22:44;8.50;99.90
20827;DHT22;10574;52.508;13.236;2024-02-04T10:25:12;8.50;99.90
20827;DHT22;10574;52.508;13.236;2024-02-04T10:27:41;8.50;99.90
20827;DHT22;10574;52.508;13.236;2024-02-04T10:30:10;8.60;99.90
20827;DHT22;10574;52.508;13.236;2024-02-04T10:32:38;8.60;99.90
20827;DHT22;10574;52.508;13.236;2024-02-04T10:35:06;8.60;99.90
20827;DHT22;10574;52.508;13.236;2024-02-04T10:37:35;8.60;99.90
20827;DHT22;10574;52.508;13.236;2024-02-04T10:40:03;8.60;99.90
20827;DHT22;10574;52.508;13.236;2024-02-04T10:42:31;8.70;99.90
20827;DHT22;10574;52.508;13.236;2024-02-04T10:45:00;8.70;99.90
20827;DHT22;10574;52.508;13.236;2024-02-04T10:47:33;8.70;99.90
20827;DHT22;10574;52.508;13.236;2024-02-04T10:50:03;8.70;99.90
20827;DHT22;10574;52.508;13.236;2024-02-04T10:52:38;8.70;99.90
20827;DHT22;10574;52.508;13.236;2024-02-04T10:55:11;8.60;99.90
20827;DHT22;10574;52.508;13.236;2024-02-04T10:57:39;8.60;99.90
20827;DHT22;10574;52.508;13.236;2024-02-04T11:00:07;8.60;99.90
20827;DHT22;10574;52.508;13.236;2024-02-04T11:02:36;8.60;99.90
20827;DHT22;10574;52.508;13.236;2024-02-04T11:05:05;8.60;99.90
20827;DHT22;10574;52.508;13.236;2024-02-04T11:07:35;8.60;99.90
20827;DHT22;10574;52.508;13.236;2024-02-04T11:10:03;8.60;99.90
20827;DHT22;10574;52.508;13.236;2024-02-04T11:12:33;8.50;99.90
20827;DHT22;10574;52.508;13.236;2024-02-04T11:15:04;8.60;99.90
20827;DHT22;10574;52.508;13.236;2024-02-04T11:20:16;8.60;99.90
20827;DHT22;10574;52.508;13.236;2024-02-04T11:22:58;8.60;99.90
20827;DHT22;10574;52.508;13.236;2024-02-04T11:27:59;8.70;99.90
20827;DHT22;10574;52.508;13.236;2024-02-04T11:30:31;8.70;99.90
20827;DHT22;10574;52.508;13.236;2024-02-04T11:32:59;8.70;99.90
20827;DHT22;10574;52.508;13.236;2024-02-04T11:35:27;8.60;99.90
20827;DHT22;10574;52.508;13.236;2024-02-04T11:37:55;8.60;99.90
20827;DHT22;10574;52.508;13.236;2024-02-04T11:40:24;8.60;99.90
20827;DHT22;10574;52.508;13.236;2024-02-04T11:43:05;8.60;99.90
20827;DHT22;10574;52.508;13.236;2024-02-04T11:45:32;8.60;99.90
20827;DHT22;10574;52.508;13.236;2024-02-04T11:48:06;8.60;99.90
20827;DHT22;10574;52.508;13.236;2024-02-04T11:50:33;8.70;99.90
20827;DHT22;10574;52.508;13.236;2024-02-04T11:53:09;8.70;99.90
20827;DHT22;10574;52.508;13.236;2024-02-04T11:55:36;8.70;99.90
20827;DHT22;10574;52.508;13.236;2024-02-04T11:58:06;8.60;99.90
20827;DHT22;10574;52.508;13.236;2024-02-04T12:00:34;8.70;99.90
20827;DHT22;10574;52.508;13.236;2024-02-04T12:03:06;8.70;99.90
20827;DHT22;10574;52.508;13.236;2024-02-04T12:05:35;8.80;99.90
20827;DHT22;10574;52.508;13.236;2024-02-04T12:08:05;8.80;99.90
20827;DHT22;10574;52.508;13.236;2024-02-04T12:10:39;8.80;99.90
20827;DHT22;10574;52.508;13.236;2024-02-04T12:13:04;8.80;99.90
20827;DHT22;10574;52.508;13.236;2024-02-04T12:15:36;8.80;99.90
20827;DHT22;10574;52.508;13.236;2024-02-04T12:18:09;8.80;99.90
20827;DHT22;10574;52.508;13.236;2024-02-04T12:20:37;8.80;99.90
20827;DHT22;10574;52.508;13.236;2024-02-04T12:23:06;8.70;99.90
20827;DHT22;10574;52.508;13.236;2024-02-04T12:25:35;8.60;99.90
20827;DHT22;10574;52.508;13.236;2024-02-04T12:28:03;8.60;99.90
20827;DHT22;10574;52.508;13.236;2024-02-04T12:30:32;8.60;99.90
20827;DHT22;10574;52.508;13.236;2024-02-04T12:33:01;8.60;99.90
20827;DHT22;10574;52.508;13.236;2024-02-04T12:35:31;8.50;99.90
20827;DHT22;10574;52.508;13.236;2024-02-04T12:38:00;8.50;99.90
20827;DHT22;10574;52.508;13.236;2024-02-04T12:40:31;8.50;99.90
20827;DHT22;10574;52.508;13.236;2024-02-04T12:43:01;8.50;99.90
20827;DHT22;10574;52.508;13.236;2024-02-04T12:45:29;8.50;99.90
20827;DHT22;10574;52.508;13.236;2024-02-04T12:47:58;8.50;99.90
20827;DHT22;10574;52.508;13.236;2024-02-04T12:50:26;8.50;99.90
20827;DHT22;10574;52.508;13.236;2024-02-04T12:53:07;8.50;99.90
20827;DHT22;10574;52.508;13.236;2024-02-04T12:55:37;8.50;99.90
20827;DHT22;10574;52.508;13.236;2024-02-04T12:58:09;8.50;99.90
20827;DHT22;10574;52.508;13.236;2024-02-04T13:00:39;8.50;99.90
20827;DHT22;10574;52.508;13.236;2024-02-04T13:03:08;8.50;99.90
20827;DHT22;10574;52.508;13.236;2024-02-04T13:05:37;8.50;99.90
20827;DHT22;10574;52.508;13.236;2024-02-04T13:08:05;8.60;99.90
20827;DHT22;10574;52.508;13.236;2024-02-04T13:10:36;8.50;99.90
20827;DHT22;10574;52.508;13.236;2024-02-04T13:13:08;8.50;99.90
20827;DHT22;10574;52.508;13.236;2024-02-04T13:15:42;8.50;99.90
20827;DHT22;10574;52.508;13.236;2024-02-04T13:18:10;8.50;99.90
20827;DHT22;10574;52.508;13.236;2024-02-04T13:20:38;8.50;99.90
20827;DHT22;10574;52.508;13.236;2024-02-04T13:23:07;8.50;99.90
20827;DHT22;10574;52.508;13.236;2024-02-04T13:25:35;8.50;99.90
20827;DHT22;10574;52.508;13.236;2024-02-04T13:28:03;8.50;99.90
20827;DHT22;10574;52.508;13.236;2024-02-04T13:30:31;8.50;99.90
20827;DHT22;10574;52.508;13.236;2024-02-04T13:32:59;8.50;99.90
20827;DHT22;10574;52.508;13.236;2024-02-04T13:35:28;8.50;99.90
20827;DHT22;10574;52.508;13.236;2024-02-04T13:37:56;8.50;99.90
20827;DHT22;10574;52.508;13.236;2024-02-04T13:40:24;8.50;99.90
20827;DHT22;10574;52.508;13.236;2024-02-04T13:42:52;8.50;99.90
20827;DHT22;10574;52.508;13.236;2024-02-04T13:45:20;8.50;99.90
20827;DHT22;10574;52.508;13.236;2024-02-04T13:47:49;8.50;99.90
20827;DHT22;10574;52.508;13.236;2024-02-04T13:50:16;8.40;99.90
20827;DHT22;10574;52.508;13.236;2024-02-04T13:52:44;8.50;99.90
20827;DHT22;10574;52.508;13.236;2024-02-04T13:55:12;8.50;99.90
20827;DHT22;10574;52.508;13.236;2024-02-04T13:57:40;8.50;99.90
20827;DHT22;10574;52.508;13.236;2024-02-04T14:00:09;8.50;99.90
20827;DHT22;10574;52.508;13.236;2024-02-04T14:02:36;8.40;99.90
20827;DHT22;10574;52.508;13.236;2024-02-04T14:05:05;8.50;99.90
20827;DHT22;10574;52.508;13.236;2024-02-04T14:07:33;8.40;99.90
20827;DHT22;10574;52.508;13.236;2024-02-04T14:10:01;8.40;99.90
20827;DHT22;10574;52.508;13.236;2024-02-04T14:12:29;8.40;99.90
20827;DHT22;10574;52.508;13.236;2024-02-04T14:14:58;8.40;99.90
20827;DHT22;10574;52.508;13.236;2024-02-04T14:17:26;8.40;99.90
20827;DHT22;10574;52.508;13.236;2024-02-04T14:19:53;8.40;99.90
20827;DHT22;10574;52.508;13.236;2024-02-04T14:22:23;8.40;99.90
20827;DHT22;10574;52.508;13.236;2024-02-04T14:24:50;8.40;99.90
20827;DHT22;10574;52.508;13.236;2024-02-04T14:27:18;8.40;99.90
20827;DHT22;10574;52.508;13.236;2024-02-04T14:29:46;8.40;99.90
20827;DHT22;10574;52.508;13.236;2024-02-04T14:32:14;8.40;99.90
20827;DHT22;10574;52.508;13.236;2024-02-04T14:34:42;8.30;99.90
20827;DHT22;10574;52.508;13.236;2024-02-04T14:37:10;8.40;99.90
20827;DHT22;10574;52.508;13.236;2024-02-04T14:39:38;8.40;99.90
20827;DHT22;10574;52.508;13.236;2024-02-04T14:42:09;8.40;99.90
20827;DHT22;10574;52.508;13.236;2024-02-04T14:44:37;8.40;99.90
20827;DHT22;10574;52.508;13.236;2024-02-04T14:47:04;8.40;99.90
20827;DHT22;10574;52.508;13.236;2024-02-04T14:49:32;8.30;99.90
20827;DHT22;10574;52.508;13.236;2024-02-04T14:52:00;8.30;99.90
20827;DHT22;10574;52.508;13.236;2024-02-04T14:54:28;8.40;99.90
20827;DHT22;10574;52.508;13.236;2024-02-04T14:56:56;8.40;99.90
20827;DHT22;10574;52.508;13.236;2024-02-04T14:59:24;8.40;99.90
20827;DHT22;10574;52.508;13.236;2024-02-04T15:01:51;8.40;99.90
20827;DHT22;10574;52.508;13.236;2024-02-04T15:04:19;8.40;99.90
20827;DHT22;10574;52.508;13.236;2024-02-04T15:06:47;8.40;99.90
20827;DHT22;10574;52.508;13.236;2024-02-04T15:09:15;8.40;99.90
20827;DHT22;10574;52.508;13.236;2024-02-04T15:11:43;8.40;99.90
20827;DHT22;10574;52.508;13.236;2024-02-04T15:14:11;8.40;99.90
20827;DHT22;10574;52.508;13.236;2024-02-04T15:16:40;8.40;99.90
20827;DHT22;10574;52.508;13.236;2024-02-04T15:19:08;8.40;99.90
20827;DHT22;10574;52.508;13.236;2024-02-04T15:21:37;8.40;99.90
20827;DHT22;10574;52.508;13.236;2024-02-04T15:24:05;8.40;99.90
20827;DHT22;10574;52.508;13.236;2024-02-04T15:26:34;8.30;99.90
20827;DHT22;10574;52.508;13.236;2024-02-04T15:29:04;8.30;99.90
20827;DHT22;10574;52.508;13.236;2024-02-04T15:31:32;8.30;99.90
20827;DHT22;10574;52.508;13.236;2024-02-04T15:34:03;8.40;99.90
20827;DHT22;10574;52.508;13.236;2024-02-04T15:36:32;8.30;99.90
20827;DHT22;10574;52.508;13.236;2024-02-04T15:39:02;8.40;99.90
20827;DHT22;10574;52.508;13.236;2024-02-04T15:41:30;8.40;99.90
20827;DHT22;10574;52.508;13.236;2024-02-04T15:43:59;8.30;99.90
20827;DHT22;10574;52.508;13.236;2024-02-04T15:46:28;8.40;99.90